Terminal Aerodrome Forecast
Issued by NWS Mt. Holly, NJ

Home | Current Version | Previous Version | Text Only | Print | Product List | Glossary On
Versions: 1 2 3 4 5 6 7 8 9 10 11 12 13 14 15 16 17 18 19 20 21
877
FTUS41 KPHI 181120
TAFTTN
TAF
KTTN 181120Z 1812/1912 19006KT P6SM VCSH OVC015
      TEMPO 1812/1814 4SM -SHRA
     FM181400 19006KT P6SM OVC020
     FM181600 19007KT P6SM SCT025 BKN080
     FM182300 19008KT 5SM -SHRA VCTS SCT030CB BKN050 PROB30
      1823/1903 2SM TSRA BKN025CB
     FM190300 18004KT P6SM SCT025 OVC080=

USA.gov is the U.S. government's official web portal to all federal, state and local government web resources and services.